Time;durP1;ratioP1;P1;durP2;ratioP2;P2;SDS_P1;SDS_P2;PMS_P1;PMS_P2;Temp;Humidity;BMP_temperature;BMP_pressure;BME280_temperature;BME280_humidity;BME280_pressure;Samples;Min_cycle;Max_cycle;Signal;HPM_P1;HPM_P2
2022/10/28 00:01:58;;;;;;;9.93;9.43;;;;;;;-143.83;100.00;62900.06;5090255;28;20036;-65
2022/10/28 00:04:24;;;;;;;10.68;10.10;;;;;;;-143.83;100.00;62900.06;5083105;28;20024;-64
2022/10/28 00:06:49;;;;;;;9.68;9.18;;;;;;;-143.83;100.00;62900.06;5082933;28;20035;-64
2022/10/28 00:09:15;;;;;;;9.60;9.13;;;;;;;-143.83;100.00;62900.06;5086663;28;20073;-65
2022/10/28 00:11:40;;;;;;;9.88;9.38;;;;;;;-143.83;100.00;62900.06;5081160;28;20043;-64
2022/10/28 00:14:06;;;;;;;9.60;9.10;;;;;;;-143.83;100.00;62900.06;5087963;28;20119;-64
2022/10/28 00:16:34;;;;;;;9.95;9.45;;;;;;;-143.83;100.00;62900.06;5086008;28;20031;-64
2022/10/28 00:19:01;;;;;;;9.77;9.27;;;;;;;-143.83;100.00;62900.06;5086187;28;20024;-64
2022/10/28 00:21:29;;;;;;;10.65;10.10;;;;;;;-143.83;100.00;62900.06;5083953;28;20037;-64
2022/10/28 00:23:55;;;;;;;10.90;10.30;;;;;;;-143.83;100.00;62900.06;5081372;28;20036;-64
2022/10/28 00:26:23;;;;;;;10.25;9.75;;;;;;;-143.83;100.00;62900.06;5086254;28;20031;-64
2022/10/28 00:28:55;;;;;;;10.07;9.57;;;;;;;-143.83;100.00;62900.06;5084937;28;20027;-64
2022/10/28 00:31:22;;;;;;;10.23;9.73;;;;;;;-143.83;100.00;62900.06;5089762;28;20028;-64
2022/10/28 00:33:48;;;;;;;10.00;9.50;;;;;;;-143.83;100.00;62900.06;5084613;28;20030;-64
2022/10/28 00:36:17;;;;;;;9.75;9.25;;;;;;;-143.83;100.00;62900.06;5087720;28;20374;-64
2022/10/28 00:38:44;;;;;;;10.45;9.95;;;;;;;-143.83;100.00;62900.06;5079706;28;20429;-64
2022/10/28 00:41:12;;;;;;;9.63;9.13;;;;;;;-143.83;100.00;62900.06;5079770;28;20020;-64
2022/10/28 00:43:40;;;;;;;9.93;9.43;;;;;;;-143.83;100.00;62900.06;5083403;28;20144;-64
2022/10/28 00:46:27;;;;;;;10.15;9.65;;;;;;;-143.83;100.00;62900.06;5078830;28;20060;-65
2022/10/28 00:48:58;;;;;;;10.10;9.60;;;;;;;-143.83;100.00;62900.06;5082944;28;20024;-64
2022/10/28 00:51:26;;;;;;;10.00;9.50;;;;;;;-143.83;100.00;62900.06;5089982;28;20044;-64
2022/10/28 00:53:53;;;;;;;10.02;9.52;;;;;;;-143.83;100.00;62900.06;5086244;28;20518;-64
2022/10/28 00:56:19;;;;;;;9.80;9.30;;;;;;;-143.83;100.00;62900.06;5084523;28;20043;-65
2022/10/28 00:58:47;;;;;;;10.35;9.85;;;;;;;-143.83;100.00;62900.06;5083396;28;20037;-65
2022/10/28 01:01:12;;;;;;;10.13;9.63;;;;;;;-143.83;100.00;62900.06;5080560;28;20031;-65
2022/10/28 01:03:38;;;;;;;10.10;9.60;;;;;;;-143.83;100.00;62900.06;5087074;28;20024;-64
2022/10/28 01:06:05;;;;;;;10.93;10.32;;;;;;;-143.83;100.00;62900.06;5085551;28;20035;-64
2022/10/28 01:08:31;;;;;;;10.27;9.77;;;;;;;-143.83;100.00;62900.06;5078361;28;20475;-65
2022/10/28 01:11:02;;;;;;;10.63;10.13;;;;;;;-143.83;100.00;62900.06;5083713;28;20052;-65
2022/10/28 01:13:31;;;;;;;10.30;9.80;;;;;;;-143.83;100.00;62900.06;5084863;28;20026;-65
2022/10/28 01:16:15;;;;;;;10.48;9.98;;;;;;;-143.83;100.00;62900.06;5083916;28;20029;-65
2022/10/28 01:19:00;;;;;;;9.93;9.43;;;;;;;-143.83;100.00;62900.06;5081907;28;20055;-65
2022/10/28 01:21:52;;;;;;;9.88;9.38;;;;;;;-143.83;100.00;62900.06;5086942;28;20024;-65
2022/10/28 01:24:30;;;;;;;9.90;9.40;;;;;;;-143.83;100.00;62900.06;5080256;28;20029;-64
2022/10/28 01:27:04;;;;;;;10.32;9.82;;;;;;;-143.83;100.00;62900.06;5089741;28;20032;-64
2022/10/28 01:29:58;;;;;;;;;;;;;;;-143.83;100.00;62900.06;5080308;28;20028;-64
2022/10/28 01:32:53;;;;;;;9.90;9.40;;;;;;;-143.83;100.00;62900.06;5081690;28;19919;-64
2022/10/28 01:35:28;;;;;;;9.80;9.30;;;;;;;-143.83;100.00;62900.06;5076325;28;20036;-64
2022/10/28 01:37:58;;;;;;;9.73;9.23;;;;;;;-143.83;100.00;62900.06;5081547;28;20027;-64
2022/10/28 01:40:42;;;;;;;10.35;9.85;;;;;;;-143.83;100.00;62900.06;5087893;28;20027;-64
2022/10/28 01:43:19;;;;;;;10.18;9.68;;;;;;;-143.83;100.00;62900.06;5087208;28;20032;-64
2022/10/28 01:45:47;;;;;;;10.48;9.98;;;;;;;-143.83;100.00;62900.06;5083091;28;20034;-64
2022/10/28 01:48:25;;;;;;;9.73;9.23;;;;;;;-143.83;100.00;62900.06;5083035;28;20553;-65
2022/10/28 01:51:00;;;;;;;10.32;9.82;;;;;;;-143.83;100.00;62900.06;5082008;28;20384;-64
2022/10/28 01:53:30;;;;;;;10.07;9.57;;;;;;;-143.83;100.00;62900.06;5078368;28;20371;-64
2022/10/28 01:56:01;;;;;;;9.98;9.48;;;;;;;-143.83;100.00;62900.06;5085324;28;20042;-66
2022/10/28 01:58:30;;;;;;;9.82;9.32;;;;;;;-143.83;100.00;62900.06;5080759;28;20020;-64
2022/10/28 02:00:59;;;;;;;10.32;9.82;;;;;;;-143.83;100.00;62900.06;5077142;28;20100;-64
2022/10/28 02:03:26;;;;;;;10.00;9.50;;;;;;;-143.83;100.00;62900.06;5082105;28;20027;-64
2022/10/28 02:05:55;;;;;;;9.85;9.35;;;;;;;-143.83;100.00;62900.06;5083716;28;20378;-64
2022/10/28 02:08:37;;;;;;;10.23;9.73;;;;;;;-143.83;100.00;62900.06;5080405;28;20047;-64
2022/10/28 02:11:33;;;;;;;9.77;9.27;;;;;;;-143.83;100.00;62900.06;5084945;28;20442;-65
2022/10/28 02:14:43;;;;;;;10.15;9.65;;;;;;;-143.83;100.00;62900.06;5080214;28;20111;-65
2022/10/28 02:17:27;;;;;;;9.60;9.10;;;;;;;-143.83;100.00;62900.06;5085697;28;20031;-65
2022/10/28 02:20:14;;;;;;;10.15;9.65;;;;;;;-143.83;100.00;62900.06;5084826;28;20032;-65
2022/10/28 02:22:49;;;;;;;10.07;9.57;;;;;;;-143.83;100.00;62900.06;5081301;28;20036;-64
2022/10/28 02:25:22;;;;;;;10.00;9.50;;;;;;;-143.83;100.00;62900.06;5082433;28;20024;-64
2022/10/28 02:28:02;;;;;;;10.20;9.70;;;;;;;-143.83;100.00;62900.06;5082667;28;20595;-65
2022/10/28 02:30:56;;;;;;;10.18;9.68;;;;;;;-143.83;100.00;62900.06;5080028;28;20052;-65
2022/10/28 02:33:28;;;;;;;9.75;9.25;;;;;;;-143.83;100.00;62900.06;5089665;28;20353;-65
2022/10/28 02:36:04;;;;;;;10.18;9.68;;;;;;;-143.83;100.00;62900.06;5087406;28;20024;-65
2022/10/28 02:38:41;;;;;;;10.80;10.20;;;;;;;-143.83;100.00;62900.06;5079690;28;20040;-65
2022/10/28 02:41:43;;;;;;;9.60;9.10;;;;;;;-143.83;100.00;62900.06;5080553;28;20025;-65
2022/10/28 02:44:20;;;;;;;9.85;9.35;;;;;;;-143.83;100.00;62900.06;5078908;28;20039;-64
2022/10/28 02:46:49;;;;;;;9.90;9.40;;;;;;;-143.83;100.00;62900.06;5081450;28;20035;-65
2022/10/28 02:49:14;;;;;;;9.90;9.40;;;;;;;-143.83;100.00;62900.06;5087479;28;20024;-64
2022/10/28 02:51:45;;;;;;;10.18;9.68;;;;;;;-143.83;100.00;62900.06;5075336;28;20045;-65
2022/10/28 02:54:48;;;;;;;10.70;10.10;;;;;;;-143.83;100.00;62900.06;5077038;28;20054;-64
2022/10/28 02:57:23;;;;;;;9.90;9.40;;;;;;;-143.83;100.00;62900.06;5053748;28;20345;-64
2022/10/28 02:59:54;;;;;;;10.40;9.88;;;;;;;-143.83;100.00;62900.06;5081263;28;20463;-65
2022/10/28 03:02:20;;;;;;;9.85;9.35;;;;;;;-143.83;100.00;62900.06;5079842;28;20357;-64
2022/10/28 03:04:45;;;;;;;10.00;9.50;;;;;;;-143.83;100.00;62900.06;5090659;28;20044;-64
2022/10/28 03:07:11;;;;;;;10.00;9.50;;;;;;;-143.83;100.00;62900.06;5075443;28;20024;-65
2022/10/28 03:09:36;;;;;;;10.38;9.88;;;;;;;-143.83;100.00;62900.06;5073056;28;20032;-64
2022/10/28 03:12:02;;;;;;;10.40;9.90;;;;;;;-143.83;100.00;62900.06;5080263;28;20016;-65
2022/10/28 03:14:27;;;;;;;10.15;9.65;;;;;;;-143.83;100.00;62900.06;5081803;28;20514;-65
2022/10/28 03:16:53;;;;;;;10.57;10.05;;;;;;;-143.83;100.00;62900.06;5078839;28;20016;-65
2022/10/28 03:19:18;;;;;;;10.25;9.75;;;;;;;-143.83;100.00;62900.06;5077964;28;20029;-64
2022/10/28 03:21:44;;;;;;;9.77;9.27;;;;;;;-143.83;100.00;62900.06;5081220;28;20143;-65
2022/10/28 03:24:09;;;;;;;9.55;9.10;;;;;;;-143.83;100.00;62900.06;5079224;28;20028;-65
2022/10/28 03:26:35;;;;;;;9.93;9.43;;;;;;;-143.83;100.00;62900.06;5082052;28;20047;-65
2022/10/28 03:29:00;;;;;;;10.80;10.20;;;;;;;-143.83;100.00;62900.06;5080961;28;20028;-65
2022/10/28 03:31:26;;;;;;;10.30;9.80;;;;;;;-143.83;100.00;62900.06;5083159;28;20031;-65
2022/10/28 03:33:51;;;;;;;11.00;10.40;;;;;;;-143.83;100.00;62900.06;5088004;28;20035;-65
2022/10/28 03:36:17;;;;;;;10.35;9.82;;;;;;;-143.83;100.00;62900.06;5084234;28;20427;-65
2022/10/28 03:38:42;;;;;;;10.80;10.20;;;;;;;-143.83;100.00;62900.06;5085683;28;20486;-64
2022/10/28 03:41:07;;;;;;;10.23;9.73;;;;;;;-143.83;100.00;62900.06;5082838;28;20028;-64
2022/10/28 03:43:33;;;;;;;9.93;9.43;;;;;;;-143.83;100.00;62900.06;5085278;28;20190;-65
2022/10/28 03:45:58;;;;;;;12.68;11.90;;;;;;;-143.83;100.00;62900.06;5083761;28;20166;-64
2022/10/28 03:48:24;;;;;;;10.45;9.90;;;;;;;-143.83;100.00;62900.06;5082040;28;20020;-63
2022/10/28 03:50:53;;;;;;;10.20;9.70;;;;;;;-143.83;100.00;62900.06;5086016;28;20044;-64
2022/10/28 03:53:19;;;;;;;10.60;10.02;;;;;;;-143.83;100.00;62900.06;5086328;28;20384;-64
2022/10/28 03:55:57;;;;;;;10.73;10.13;;;;;;;-143.83;100.00;62900.06;5085083;28;20024;-64
2022/10/28 03:58:23;;;;;;;9.98;9.48;;;;;;;-143.83;100.00;62900.06;5079488;28;20039;-64
2022/10/28 04:00:50;;;;;;;10.68;10.10;;;;;;;-143.83;100.00;62900.06;5088720;28;20032;-64
2022/10/28 04:03:17;;;;;;;10.90;10.30;;;;;;;-143.83;100.00;62900.06;5081347;28;20474;-64
2022/10/28 04:05:43;;;;;;;10.60;10.00;;;;;;;-143.83;100.00;62900.06;5077301;28;20032;-64
2022/10/28 04:08:08;;;;;;;10.07;9.57;;;;;;;-143.83;100.00;62900.06;5083967;28;20100;-65
2022/10/28 04:10:34;;;;;;;10.95;10.35;;;;;;;-143.83;100.00;62900.06;5082418;28;20025;-65
2022/10/28 04:13:00;;;;;;;10.93;10.32;;;;;;;-143.83;100.00;62900.06;5077844;28;20024;-65
2022/10/28 04:15:26;;;;;;;10.73;10.13;;;;;;;-143.83;100.00;62900.06;5076553;28;20028;-65
2022/10/28 04:17:52;;;;;;;10.45;9.90;;;;;;;-143.83;100.00;62900.06;5085936;28;20032;-65
2022/10/28 04:20:17;;;;;;;10.43;9.88;;;;;;;-143.83;100.00;62900.06;5085148;28;20038;-64
2022/10/28 04:22:43;;;;;;;10.13;9.63;;;;;;;-143.83;100.00;62900.06;5086853;28;20024;-65
2022/10/28 04:25:09;;;;;;;10.07;9.57;;;;;;;-143.83;100.00;62900.06;5087251;28;20024;-64
2022/10/28 04:27:34;;;;;;;11.30;10.70;;;;;;;-143.83;100.00;62900.06;5083779;28;20024;-64
2022/10/28 04:30:00;;;;;;;11.07;10.48;;;;;;;-143.83;100.00;62900.06;5085563;27;20487;-60
2022/10/28 04:32:26;;;;;;;10.10;9.60;;;;;;;-143.83;100.00;62900.06;5083009;28;20543;-59
2022/10/28 04:34:51;;;;;;;10.10;9.60;;;;;;;-143.83;100.00;62900.06;5089931;28;20118;-60
2022/10/28 04:37:17;;;;;;;10.07;9.57;;;;;;;-143.83;100.00;62900.06;5085738;28;20057;-59
2022/10/28 04:39:42;;;;;;;10.23;9.73;;;;;;;-143.83;100.00;62900.06;5083378;28;20031;-59
2022/10/28 04:42:08;;;;;;;11.00;10.40;;;;;;;-143.83;100.00;62900.06;5083189;28;20058;-60
2022/10/28 04:44:33;;;;;;;10.23;9.73;;;;;;;-143.83;100.00;62900.06;5080639;28;20016;-60
2022/10/28 04:46:59;;;;;;;11.98;11.27;;;;;;;-143.83;100.00;62900.06;5088486;28;20024;-59
2022/10/28 04:49:24;;;;;;;10.15;9.65;;;;;;;-143.83;100.00;62900.06;5087634;28;20510;-60
2022/10/28 04:51:50;;;;;;;10.82;10.23;;;;;;;-143.83;100.00;62900.06;5090139;28;20074;-59
2022/10/28 04:54:15;;;;;;;10.93;10.32;;;;;;;-143.83;100.00;62900.06;5085675;28;20031;-61
2022/10/28 04:56:40;;;;;;;10.95;10.38;;;;;;;-143.83;100.00;62900.06;5089114;28;20031;-60
2022/10/28 04:59:06;;;;;;;10.07;9.57;;;;;;;-143.83;100.00;62900.06;5089694;28;20036;-59
2022/10/28 05:01:32;;;;;;;10.13;9.63;;;;;;;-143.83;100.00;62900.06;5082247;28;20028;-60
2022/10/28 05:03:57;;;;;;;11.07;10.48;;;;;;;-143.83;100.00;62900.06;5085056;28;20420;-60
2022/10/28 05:06:23;;;;;;;11.10;10.50;;;;;;;-143.83;100.00;62900.06;5080175;28;20066;-60
2022/10/28 05:08:48;;;;;;;10.50;10.00;;;;;;;-143.83;100.00;62900.06;5086065;28;20040;-59
2022/10/28 05:11:14;;;;;;;10.27;9.77;;;;;;;-143.83;100.00;62900.06;5089301;28;20468;-59
2022/10/28 05:13:39;;;;;;;10.13;9.63;;;;;;;-143.83;100.00;62900.06;5084212;28;20017;-60
2022/10/28 05:16:05;;;;;;;10.15;9.65;;;;;;;-143.83;100.00;62900.06;5089339;28;20059;-61
2022/10/28 05:18:31;;;;;;;9.63;9.13;;;;;;;-143.83;100.00;62900.06;5078495;28;20596;-61
2022/10/28 05:20:56;;;;;;;10.40;9.90;;;;;;;-143.83;100.00;62900.06;5084254;28;20044;-64
2022/10/28 05:23:22;;;;;;;9.98;9.48;;;;;;;-143.83;100.00;62900.06;5080804;28;20495;-63
2022/10/28 05:25:48;;;;;;;10.52;10.02;;;;;;;-143.83;100.00;62900.06;5085844;28;20436;-64
2022/10/28 05:28:14;;;;;;;9.82;9.32;;;;;;;-143.83;100.00;62900.06;5078165;28;20036;-64
2022/10/28 05:30:40;;;;;;;9.98;9.48;;;;;;;-143.83;100.00;62900.06;5084305;28;20021;-64
2022/10/28 05:33:05;;;;;;;10.40;9.90;;;;;;;-143.83;100.00;62900.06;5081333;28;20048;-64
2022/10/28 05:35:31;;;;;;;10.18;9.68;;;;;;;-143.83;100.00;62900.06;5081603;28;20028;-64
2022/10/28 05:37:56;;;;;;;10.18;9.68;;;;;;;-143.83;100.00;62900.06;5085856;28;20027;-65
2022/10/28 05:40:23;;;;;;;10.50;10.00;;;;;;;-143.83;100.00;62900.06;5082393;28;20491;-64
2022/10/28 05:42:49;;;;;;;10.93;10.43;;;;;;;-143.83;100.00;62900.06;5076522;28;20151;-64
2022/10/28 05:45:14;;;;;;;10.38;9.88;;;;;;;-143.83;100.00;62900.06;5088919;28;20499;-64
2022/10/28 05:47:45;;;;;;;10.50;10.00;;;;;;;-143.83;100.00;62900.06;5079380;28;20549;-64
2022/10/28 05:50:12;;;;;;;10.90;10.40;;;;;;;-143.83;100.00;62900.06;5084014;28;20024;-64
2022/10/28 05:52:37;;;;;;;10.50;10.00;;;;;;;-143.83;100.00;62900.06;5079202;28;20052;-64
2022/10/28 05:55:04;;;;;;;10.82;10.32;;;;;;;-143.83;100.00;62900.06;5077814;28;20073;-64
2022/10/28 05:57:33;;;;;;;10.25;9.77;;;;;;;-143.83;100.00;62900.06;5083170;28;20028;-65
2022/10/28 05:59:58;;;;;;;11.18;10.68;;;;;;;-143.83;100.00;62900.06;5088997;28;20122;-64
2022/10/28 06:02:24;;;;;;;10.43;9.93;;;;;;;-143.83;100.00;62900.06;5084779;28;20110;-63
2022/10/28 06:04:49;;;;;;;10.77;10.27;;;;;;;-143.83;100.00;62900.06;5079196;28;20043;-64
2022/10/28 06:07:15;;;;;;;10.48;9.98;;;;;;;-143.83;100.00;62900.06;5083973;28;20028;-65
2022/10/28 06:09:40;;;;;;;10.20;9.80;;;;;;;-143.83;100.00;62900.06;5083911;28;20030;-64
2022/10/28 06:12:07;;;;;;;10.60;10.10;;;;;;;-143.83;100.00;62900.06;5081589;28;20681;-64
2022/10/28 06:14:33;;;;;;;10.70;10.20;;;;;;;-143.83;100.00;62900.06;5076986;28;20034;-64
2022/10/28 06:16:58;;;;;;;10.85;10.35;;;;;;;-143.83;100.00;62900.06;5087213;28;20102;-64
2022/10/28 06:19:24;;;;;;;11.02;10.52;;;;;;;-143.83;100.00;62900.06;5079017;28;20172;-63
2022/10/28 06:21:49;;;;;;;10.50;10.00;;;;;;;-143.83;100.00;62900.06;5081167;28;20073;-64
2022/10/28 06:24:15;;;;;;;10.90;10.40;;;;;;;-143.83;100.00;62900.06;5076482;28;20016;-67
2022/10/28 06:26:40;;;;;;;10.98;10.48;;;;;;;-143.83;100.00;62900.06;5081057;28;20027;-66
2022/10/28 06:29:09;;;;;;;11.10;10.60;;;;;;;-143.83;100.00;62900.06;5083917;28;20024;-67
2022/10/28 06:31:38;;;;;;;10.65;10.15;;;;;;;-143.83;100.00;62900.06;5081464;28;20059;-65
2022/10/28 06:34:04;;;;;;;10.80;10.30;;;;;;;-143.83;100.00;62900.06;5082022;28;20027;-66
2022/10/28 06:36:30;;;;;;;11.23;10.73;;;;;;;-143.83;100.00;62900.06;5085719;28;20031;-66
2022/10/28 06:38:55;;;;;;;11.20;10.70;;;;;;;-143.83;100.00;62900.06;5083936;28;20497;-65
2022/10/28 06:41:21;;;;;;;10.88;10.38;;;;;;;-143.83;100.00;62900.06;5084577;28;20039;-67
2022/10/28 06:43:46;;;;;;;10.85;10.35;;;;;;;-143.83;100.00;62900.06;5082030;28;20076;-66
2022/10/28 06:46:12;;;;;;;10.90;10.40;;;;;;;-143.83;100.00;62900.06;5078799;28;20035;-67
2022/10/28 06:48:38;;;;;;;10.77;10.27;;;;;;;-143.83;100.00;62900.06;5086911;28;20388;-66
2022/10/28 06:51:03;;;;;;;10.48;9.98;;;;;;;-143.83;100.00;62900.06;5084588;28;20123;-65
2022/10/28 06:53:29;;;;;;;11.10;10.60;;;;;;;-143.83;100.00;62900.06;5083785;28;20085;-65
2022/10/28 06:55:56;;;;;;;10.93;10.43;;;;;;;-143.83;100.00;62900.06;5082387;28;20390;-66
2022/10/28 06:58:22;;;;;;;10.55;10.05;;;;;;;-143.83;100.00;62900.06;5086136;28;20380;-67
2022/10/28 07:00:48;;;;;;;10.77;10.27;;;;;;;-143.83;100.00;62900.06;5088464;28;20543;-66
2022/10/28 07:03:13;;;;;;;10.55;10.05;;;;;;;-143.83;100.00;62900.06;5086771;28;20028;-66
2022/10/28 07:05:39;;;;;;;10.70;10.20;;;;;;;-143.83;100.00;62900.06;5088893;28;20081;-66
2022/10/28 07:08:05;;;;;;;10.60;10.10;;;;;;;-143.83;100.00;62900.06;5088974;28;20333;-68
2022/10/28 07:10:30;;;;;;;10.80;10.30;;;;;;;-143.83;100.00;62900.06;5088746;28;20027;-69
2022/10/28 07:12:56;;;;;;;11.00;10.50;;;;;;;-143.83;100.00;62900.06;5084616;28;20050;-69
2022/10/28 07:15:21;;;;;;;11.00;10.50;;;;;;;-143.83;100.00;62900.06;5083864;28;20024;-67
2022/10/28 07:17:54;;;;;;;10.57;10.07;;;;;;;-143.83;100.00;62900.06;5083630;28;20073;-66
2022/10/28 07:20:20;;;;;;;10.70;10.20;;;;;;;-143.83;100.00;62900.06;5084397;28;20044;-70
2022/10/28 07:22:46;;;;;;;10.65;10.15;;;;;;;-143.83;100.00;62900.06;5081792;28;20021;-70
2022/10/28 07:25:11;;;;;;;10.80;10.30;;;;;;;-143.83;100.00;62900.06;5089472;28;20028;-70
2022/10/28 07:27:37;;;;;;;10.68;10.18;;;;;;;-143.83;100.00;62900.06;5089205;28;20032;-68
2022/10/28 07:30:03;;;;;;;10.90;10.40;;;;;;;-143.83;100.00;62900.06;5079936;28;20472;-68
2022/10/28 07:32:32;;;;;;;10.43;9.93;;;;;;;-143.83;100.00;62900.06;5088029;28;20395;-69
2022/10/28 07:34:57;;;;;;;10.80;10.30;;;;;;;-143.83;100.00;62900.06;5085790;28;20509;-69
2022/10/28 07:37:23;;;;;;;10.75;10.25;;;;;;;-143.83;100.00;62900.06;5088567;28;20028;-70
2022/10/28 07:39:49;;;;;;;11.05;10.55;;;;;;;-143.83;100.00;62900.06;5086991;28;20036;-67
2022/10/28 07:42:14;;;;;;;10.75;10.25;;;;;;;-143.83;100.00;62900.06;5078709;28;20035;-67
2022/10/28 07:44:40;;;;;;;11.10;10.60;;;;;;;-143.83;100.00;62900.06;5078440;28;20020;-68
2022/10/28 07:47:05;;;;;;;10.68;10.18;;;;;;;-143.83;100.00;62900.06;5086833;28;20036;-67
2022/10/28 07:49:32;;;;;;;10.70;10.20;;;;;;;-143.83;100.00;62900.06;5085521;28;20387;-67
2022/10/28 07:51:57;;;;;;;10.90;10.40;;;;;;;-143.83;100.00;62900.06;5084328;28;20075;-67
2022/10/28 07:54:23;;;;;;;10.50;10.02;;;;;;;-143.83;100.00;62900.06;5089631;28;20051;-67
2022/10/28 07:56:48;;;;;;;11.10;10.60;;;;;;;-143.83;100.00;62900.06;5086166;28;20063;-67
2022/10/28 07:59:14;;;;;;;11.00;10.50;;;;;;;-143.83;100.00;62900.06;5082888;28;20051;-68
2022/10/28 08:01:39;;;;;;;10.90;10.40;;;;;;;-143.83;100.00;62900.06;5086782;28;20030;-68
2022/10/28 08:04:05;;;;;;;10.82;10.32;;;;;;;-143.83;100.00;62900.06;5081214;28;20036;-68
2022/10/28 08:06:30;;;;;;;11.20;10.70;;;;;;;-143.83;100.00;62900.06;5080203;28;20110;-68
2022/10/28 08:08:56;;;;;;;10.95;10.45;;;;;;;-143.83;100.00;62900.06;5085908;28;20081;-68
2022/10/28 08:11:22;;;;;;;11.10;10.60;;;;;;;-143.83;100.00;62900.06;5083155;28;20025;-69
2022/10/28 08:13:48;;;;;;;10.77;10.27;;;;;;;-143.83;100.00;62900.06;5081376;28;20032;-68
2022/10/28 08:16:14;;;;;;;10.90;10.40;;;;;;;-143.83;100.00;62900.06;5084840;28;20016;-69
2022/10/28 08:18:40;;;;;;;11.05;10.55;;;;;;;-143.83;100.00;62900.06;5087369;28;20020;-69
2022/10/28 08:21:09;;;;;;;10.73;10.23;;;;;;;-143.83;100.00;62900.06;5085631;28;20076;-68
2022/10/28 08:23:35;;;;;;;10.80;10.30;;;;;;;-143.83;100.00;62900.06;5078954;28;20055;-68
2022/10/28 08:26:01;;;;;;;10.90;10.40;;;;;;;-143.83;100.00;62900.06;5077265;28;20027;-67
2022/10/28 08:28:27;;;;;;;11.07;10.57;;;;;;;-143.83;100.00;62900.06;5081482;28;20027;-67
2022/10/28 08:30:52;;;;;;;10.73;10.23;;;;;;;-143.83;100.00;62900.06;5084103;28;20036;-66
2022/10/28 08:33:18;;;;;;;10.85;10.35;;;;;;;-143.83;100.00;62900.06;5082273;28;20086;-70
2022/10/28 08:35:49;;;;;;;10.88;10.38;;;;;;;-143.83;100.00;62900.06;5082652;28;20073;-67
2022/10/28 08:38:15;;;;;;;10.95;10.45;;;;;;;-143.83;100.00;62900.06;5088687;28;20159;-66
2022/10/28 08:41:23;;;;;;;10.85;10.35;;;;;;;-143.83;100.00;62900.06;5082851;28;20127;-68
2022/10/28 08:44:25;;;;;;;11.00;10.50;;;;;;;-143.83;100.00;62900.06;5085750;28;20114;-67
2022/10/28 08:47:24;;;;;;;10.80;10.30;;;;;;;-143.83;100.00;62900.06;5087314;28;20024;-66
2022/10/28 08:49:55;;;;;;;10.98;10.48;;;;;;;-143.83;100.00;62900.06;5085375;28;20032;-67
2022/10/28 08:52:42;;;;;;;10.82;10.32;;;;;;;-143.83;100.00;62900.06;5088299;28;20124;-65
2022/10/28 08:55:24;;;;;;;10.52;10.05;;;;;;;-143.83;100.00;62900.06;5081637;28;20177;-66
2022/10/28 08:57:55;;;;;;;10.75;10.25;;;;;;;-143.83;100.00;62900.06;5083267;28;20491;-66
2022/10/28 09:00:27;;;;;;;10.77;10.27;;;;;;;-143.83;100.00;62900.06;5084578;28;20035;-65
2022/10/28 09:03:07;;;;;;;11.05;10.55;;;;;;;-143.83;100.00;62900.06;5087910;28;20376;-67
2022/10/28 09:05:32;;;;;;;11.10;10.60;;;;;;;-143.83;100.00;62900.06;5080955;28;20031;-69
2022/10/28 09:08:00;;;;;;;10.50;10.00;;;;;;;-143.83;100.00;62900.06;5087025;28;20028;-68
2022/10/28 09:11:07;;;;;;;11.65;11.15;;;;;;;-143.83;100.00;62900.06;5081496;28;20036;-65
2022/10/28 09:13:53;;;;;;;11.32;10.82;;;;;;;-143.83;100.00;62900.06;5074450;28;20403;-66
2022/10/28 09:16:35;;;;;;;10.80;10.30;;;;;;;-143.83;100.00;62900.06;5084890;28;20059;-66
2022/10/28 09:19:18;;;;;;;11.75;11.25;;;;;;;-143.83;100.00;62900.06;5079200;28;20031;-67
2022/10/28 09:21:54;;;;;;;13.13;12.53;;;;;;;-143.83;100.00;62900.06;5082010;28;20031;-68
2022/10/28 09:24:28;;;;;;;11.73;11.23;;;;;;;-143.83;100.00;62900.06;5077973;28;20100;-65
2022/10/28 09:27:07;;;;;;;13.60;12.95;;;;;;;-143.83;100.00;62900.06;5075977;28;20425;-64
2022/10/28 09:29:46;;;;;;;10.88;10.38;;;;;;;-143.83;100.00;62900.06;5077909;28;20067;-66
2022/10/28 09:32:15;;;;;;;10.98;10.48;;;;;;;-143.83;100.00;62900.06;5076050;28;20023;-66
2022/10/28 09:34:48;;;;;;;12.73;12.13;;;;;;;-143.83;100.00;62900.06;5083183;28;20032;-66
2022/10/28 09:37:32;;;;;;;11.23;10.73;;;;;;;-143.83;100.00;62900.06;5083311;28;20020;-64
2022/10/28 09:40:23;;;;;;;12.55;11.95;;;;;;;-143.83;100.00;62900.06;5095837;28;20483;-68
2022/10/28 09:43:05;;;;;;;13.82;13.13;;;;;;;-143.83;100.00;62900.06;5076500;28;20347;-68
2022/10/28 09:45:34;;;;;;;11.25;10.75;;;;;;;-143.83;100.00;62900.06;5082525;28;20074;-65
2022/10/28 09:48:24;;;;;;;11.57;11.00;;;;;;;-143.83;100.00;62900.06;5084767;28;20035;-67
2022/10/28 09:50:52;;;;;;;11.23;10.73;;;;;;;-143.83;100.00;62900.06;5077683;28;20067;-63
2022/10/28 09:53:46;;;;;;;10.50;10.00;;;;;;;-143.83;100.00;62900.06;5079898;28;20016;-69
2022/10/28 09:56:11;;;;;;;10.80;10.30;;;;;;;-143.83;100.00;62900.06;5083040;28;20483;-67
2022/10/28 09:58:40;;;;;;;10.75;10.25;;;;;;;-143.83;100.00;62900.06;5081650;28;20043;-67
2022/10/28 10:01:05;;;;;;;11.20;10.70;;;;;;;-143.83;100.00;62900.06;5079819;28;20165;-67
2022/10/28 10:03:31;;;;;;;10.98;10.48;;;;;;;-143.83;100.00;62900.06;5081684;28;20036;-65
2022/10/28 10:06:08;;;;;;;11.20;10.70;;;;;;;-143.83;100.00;62900.06;5084559;28;20012;-67
2022/10/28 10:08:36;;;;;;;10.82;10.32;;;;;;;-143.83;100.00;62900.06;5102414;28;20111;-68
2022/10/28 10:11:08;;;;;;;10.40;9.90;;;;;;;-143.83;100.00;62900.06;5083036;28;20020;-66
2022/10/28 10:13:42;;;;;;;10.45;9.95;;;;;;;-143.83;100.00;62900.06;5083205;28;20016;-66
2022/10/28 10:16:16;;;;;;;10.98;10.48;;;;;;;-143.83;100.00;62900.06;5081231;28;20481;-67
2022/10/28 10:18:47;;;;;;;11.45;10.93;;;;;;;-143.83;100.00;62900.06;5083033;28;20074;-64
2022/10/28 10:21:15;;;;;;;12.30;11.70;;;;;;;-143.83;100.00;62900.06;5085449;28;20471;-66
2022/10/28 10:23:40;;;;;;;11.40;10.90;;;;;;;-143.83;100.00;62900.06;5078472;28;20036;-65
2022/10/28 10:26:10;;;;;;;11.88;11.27;;;;;;;-143.83;100.00;62900.06;5075234;28;20024;-66
2022/10/28 10:28:44;;;;;;;11.93;11.35;;;;;;;-143.83;100.00;62900.06;5073941;28;20411;-66
2022/10/28 10:31:24;;;;;;;10.90;10.40;;;;;;;-143.83;100.00;62900.06;5080363;28;20074;-66
2022/10/28 10:33:53;;;;;;;10.82;10.32;;;;;;;-143.83;100.00;62900.06;5080093;28;20391;-67
2022/10/28 10:36:22;;;;;;;10.88;10.38;;;;;;;-143.83;100.00;62900.06;5082566;28;20123;-65
2022/10/28 10:38:56;;;;;;;13.40;12.70;;;;;;;-143.83;100.00;62900.06;5082534;28;20034;-67
2022/10/28 10:41:43;;;;;;;10.25;9.75;;;;;;;-143.83;100.00;62900.06;5086139;28;20104;-66
2022/10/28 10:44:20;;;;;;;10.70;10.20;;;;;;;-143.83;100.00;62900.06;5080427;28;20512;-63
2022/10/28 10:46:58;;;;;;;10.95;10.45;;;;;;;-143.83;100.00;62900.06;5080554;28;20072;-65
2022/10/28 10:49:28;;;;;;;10.38;9.88;;;;;;;-143.83;100.00;62900.06;5089919;28;20103;-65
2022/10/28 10:52:01;;;;;;;10.75;10.25;;;;;;;-143.83;100.00;62900.06;5086026;28;20048;-64
2022/10/28 10:54:30;;;;;;;11.00;10.50;;;;;;;-143.83;100.00;62900.06;5084499;28;20077;-66
2022/10/28 10:57:14;;;;;;;10.80;10.30;;;;;;;-143.83;100.00;62900.06;5083185;28;20039;-65
2022/10/28 10:59:45;;;;;;;10.68;10.18;;;;;;;-143.83;100.00;62900.06;5069345;28;20098;-65
2022/10/28 11:02:30;;;;;;;11.38;10.88;;;;;;;-143.83;100.00;62900.06;5084334;28;20029;-63
2022/10/28 11:04:59;;;;;;;10.73;10.23;;;;;;;-143.83;100.00;62900.06;5083282;28;20511;-64
2022/10/28 11:07:27;;;;;;;10.63;10.13;;;;;;;-143.83;100.00;62900.06;5084011;28;20198;-64
2022/10/28 11:09:53;;;;;;;11.15;10.65;;;;;;;-143.83;100.00;62900.06;5083320;28;20044;-63
2022/10/28 11:12:29;;;;;;;10.90;10.40;;;;;;;-143.83;100.00;62900.06;5076546;28;20013;-64
2022/10/28 11:14:59;;;;;;;11.70;11.10;;;;;;;-143.83;100.00;62900.06;5105586;28;20044;-64